createdAt,value
2019-04-11T13:04:44.307Z,32.3873
2019-04-11T13:04:47.289Z,32.1599
2019-04-11T13:04:49.594Z,32.1325
2019-04-11T13:04:51.885Z,32.1325
2019-04-11T13:04:54.195Z,32.1630
2019-04-11T13:04:56.540Z,32.1050
2019-04-11T13:04:58.845Z,32.1218
2019-04-11T13:05:21.094Z,32.0760
2019-04-11T13:05:36.967Z,32.0912
2019-04-11T13:05:53.774Z,32.0363
2019-04-11T13:06:10.826Z,32.0180
2019-04-11T13:06:35.393Z,32.0943
2019-04-11T13:06:48.769Z,31.9631
2019-04-11T13:07:04.954Z,32.0729
2019-04-11T13:07:21.798Z,32.1050
2019-04-11T13:07:38.876Z,32.0089
2019-04-11T13:07:56.031Z,32.9198
2019-04-11T13:08:12.940Z,31.9982
2019-04-11T13:08:35.174Z,32.0531
2019-04-11T13:08:51.933Z,32.0684
2019-04-11T13:09:08.940Z,32.1630
2019-04-11T13:09:50.346Z,32.0821
2019-04-11T13:10:07.042Z,32.0394
2019-04-11T13:10:24.153Z,32.1096
2019-04-11T13:10:40.991Z,32.2057
2019-04-11T13:10:58.127Z,32.0943
2019-04-11T13:23:18.648Z,49.7795
2019-04-11T13:23:46.135Z,52.2026
2019-04-11T13:23:52.911Z,51.9539
2019-04-11T13:23:59.892Z,51.3283
2019-04-11T13:32:22.869Z,45.6504
2019-04-11T13:32:29.630Z,45.4414
2019-04-11T13:32:36.544Z,45.4276
2019-04-11T13:32:43.599Z,45.3941
2019-04-11T13:32:50.576Z,45.4368
2019-04-11T13:32:57.589Z,45.3590
2019-04-11T13:33:04.588Z,45.3590
2019-04-11T13:33:11.557Z,45.3132
2019-04-11T13:33:18.569Z,45.2903
2019-04-11T13:33:25.686Z,45.1987
2019-04-11T13:33:32.569Z,45.1194
2019-04-11T13:33:39.575Z,45.0843
2019-04-11T13:33:46.554Z,45.0385
2019-04-11T13:33:53.578Z,44.9561
2019-04-11T13:34:00.589Z,44.9134
2019-04-11T13:34:07.566Z,44.8814
2019-04-11T13:34:14.579Z,44.8371
2019-04-11T13:34:21.590Z,44.8005
2019-04-11T13:34:27.699Z,44.7578
2019-04-11T13:34:34.597Z,44.7807
2019-04-11T13:34:41.554Z,44.7211
2019-04-11T13:34:48.607Z,44.7089
2019-04-11T13:34:55.591Z,44.7120
2019-04-11T13:35:02.574Z,44.6860
2019-04-11T13:35:09.597Z,44.6387
2019-04-11T13:35:16.587Z,44.6067
2019-04-11T13:35:23.597Z,44.6296
2019-04-11T13:35:30.675Z,44.5609
2019-04-11T13:35:37.583Z,44.5975
2019-04-11T13:35:44.578Z,44.5380
2019-04-11T13:35:51.587Z,44.5716
2019-04-11T13:35:58.552Z,44.5258
2019-04-11T13:36:05.582Z,44.5487
2019-04-11T13:36:12.582Z,44.5609
2019-04-11T13:36:19.538Z,44.5029
2019-04-11T13:36:26.588Z,44.5289
2019-04-11T13:36:33.635Z,44.5380
2019-04-11T13:36:39.578Z,44.4846
2019-04-11T13:36:46.559Z,44.4602
2019-04-11T13:36:53.781Z,44.4602
2019-04-11T13:36:59.581Z,44.4251
2019-04-11T13:37:06.616Z,44.4511
2019-04-11T13:37:13.574Z,44.4373
2019-04-11T13:37:20.529Z,44.4114
2019-04-11T13:37:27.595Z,44.4465
2019-04-11T13:37:34.664Z,44.4389
2019-04-11T13:37:41.591Z,44.4373
2019-04-11T13:37:48.569Z,44.6082
2019-04-11T13:37:55.559Z,44.9500
2019-04-11T13:38:02.560Z,45.3162
2019-04-11T13:38:09.601Z,45.7145
2019-04-11T13:38:17.355Z,46.1036
2019-04-11T13:38:24.589Z,46.5812
2019-04-11T13:38:31.597Z,46.9368
2019-04-11T13:38:38.653Z,47.3136
2019-04-11T13:38:45.526Z,47.6249
2019-04-11T13:38:52.553Z,48.0034
2019-04-11T13:39:02.323Z,48.5451
2019-04-11T13:39:09.557Z,49.0105
2019-04-11T13:39:16.571Z,49.2027
2019-04-11T13:39:23.567Z,49.3278
2019-04-11T13:39:30.569Z,49.3965
2019-04-11T13:39:37.588Z,49.4789
2019-04-11T13:39:46.572Z,49.5018
2019-04-11T13:39:53.619Z,49.5369
2019-04-11T13:40:00.579Z,49.5552
2019-04-11T13:40:07.598Z,49.5735
2019-04-11T13:40:14.560Z,49.5567
2019-04-11T13:40:21.588Z,49.5781
2019-04-11T13:40:28.581Z,49.5369
2019-04-11T13:40:35.630Z,49.5506
2019-04-11T13:40:42.580Z,49.5552
2019-04-11T13:40:49.640Z,49.5659
2019-04-11T13:40:56.602Z,49.5796
2019-04-11T13:41:03.604Z,49.5598
2019-04-11T13:41:10.645Z,49.6025
2019-04-11T13:41:19.988Z,49.5689
2019-04-11T13:41:26.649Z,49.5918
2019-04-11T13:41:33.577Z,49.5933
2019-04-11T13:41:40.560Z,49.5735
2019-04-11T13:41:47.625Z,49.6147
2019-04-11T13:41:54.672Z,49.6162
2019-04-11T13:42:01.598Z,49.6513
2019-04-11T13:42:08.632Z,49.6513
2019-04-11T13:42:15.591Z,49.6483
2019-04-11T13:42:22.617Z,49.6620
2019-04-11T13:42:29.649Z,49.6849
2019-04-11T13:42:36.602Z,49.7078
2019-04-11T13:42:43.586Z,49.7078
2019-04-11T13:42:50.580Z,49.7429
2019-04-11T13:42:57.720Z,49.7444
2019-04-11T13:43:04.565Z,49.7749
2019-04-11T13:58:17.738Z,46.8818
2019-04-11T13:58:25.137Z,46.9139
2019-04-11T13:58:32.150Z,46.8925
2019-04-11T13:58:39.127Z,46.8788
2019-04-11T13:58:46.189Z,46.8544
2019-04-11T13:58:53.159Z,46.8635
2019-04-11T13:59:00.125Z,46.8406
2019-04-11T13:59:07.118Z,46.8727
2019-04-11T13:59:14.083Z,46.8513
2019-04-11T13:59:20.235Z,46.8635
2019-04-11T13:59:27.154Z,46.8742
2019-04-11T13:59:34.135Z,46.9200
2019-04-11T13:59:40.167Z,46.8513
2019-04-11T13:59:47.115Z,46.8635
2019-04-11T13:59:54.115Z,46.8513
2019-04-11T14:00:01.157Z,46.8605
2019-04-11T14:00:08.105Z,46.8971
2019-04-11T14:00:15.143Z,46.9322
2019-04-11T14:00:22.194Z,46.8879
2019-04-11T14:00:29.138Z,46.8742
2019-04-11T14:00:36.144Z,46.9139
2019-04-11T14:00:43.145Z,46.9368
2019-04-11T14:00:50.142Z,46.9245
2019-04-11T14:00:57.168Z,46.9368
2019-04-11T14:01:04.165Z,46.9368
2019-04-11T14:01:11.215Z,46.9703
2019-04-11T14:01:18.151Z,46.9474
2019-04-11T14:01:25.243Z,46.9963
2019-04-11T14:01:32.146Z,46.9871
2019-04-11T14:01:39.141Z,47.0100
2019-04-11T14:01:45.126Z,47.0115
2019-04-11T14:01:52.213Z,47.0558
2019-04-11T14:01:59.142Z,47.0710
2019-04-11T14:02:06.132Z,47.0481
2019-04-11T14:02:13.123Z,47.1061
2019-04-11T14:02:20.088Z,47.1199
2019-04-11T14:02:27.209Z,47.1290
2019-04-11T14:02:34.142Z,47.1199
2019-04-11T14:02:50.620Z,47.1427
2019-04-11T14:02:53.160Z,47.1992
2019-04-11T14:03:00.189Z,47.2251
2019-04-11T14:03:07.130Z,47.2267
2019-04-11T14:03:14.111Z,47.2847
2019-04-11T14:03:21.155Z,47.2938
2019-04-11T14:03:27.188Z,47.3182
2019-04-11T14:03:34.135Z,47.3304
2019-04-11T14:03:41.154Z,47.3411
2019-04-11T14:03:48.138Z,47.3533
2019-04-11T14:03:55.200Z,47.3777
2019-04-11T14:04:02.131Z,47.3442
2019-04-11T14:04:09.096Z,47.4174
2019-04-11T14:04:16.131Z,47.4144
2019-04-11T14:04:23.118Z,47.4266
2019-04-11T14:04:30.190Z,47.4586
2019-04-11T14:04:38.604Z,47.4678
2019-04-11T14:04:46.187Z,47.5181
2019-04-11T14:04:54.474Z,47.5288
2019-04-11T14:05:02.204Z,47.5517
2019-04-11T14:05:10.682Z,47.5319
2019-04-11T14:05:17.148Z,47.5776
2019-04-11T14:05:24.261Z,47.5502
2019-04-11T14:05:31.220Z,47.5883
2019-04-11T14:05:38.087Z,47.6234
2019-04-11T14:05:45.113Z,47.6234
2019-04-11T14:05:52.176Z,47.6432
2019-04-11T14:05:59.212Z,47.6600
2019-04-11T14:06:06.150Z,47.6829
2019-04-11T14:06:13.170Z,47.6661
2019-04-11T14:06:20.111Z,47.7058
2019-04-11T14:06:27.164Z,47.6936
2019-04-11T14:06:34.244Z,47.7424
2019-04-11T14:06:41.138Z,47.7256
2019-04-11T14:06:48.164Z,47.7241
2019-04-11T14:06:55.163Z,47.7607
2019-04-11T14:07:02.166Z,47.7714
2019-04-11T14:07:09.149Z,47.8065
2019-04-11T14:07:16.082Z,47.8202
2019-04-11T14:07:23.622Z,47.8111
2019-04-11T14:07:31.099Z,47.8447
2019-04-11T14:07:38.210Z,47.8431
2019-04-11T14:07:45.110Z,47.8447
2019-04-11T14:07:52.111Z,47.8904
2019-04-11T14:07:59.145Z,47.8996
2019-04-11T14:08:06.177Z,47.8996
2019-04-11T14:08:13.117Z,47.9255
2019-04-11T14:08:20.170Z,47.9622
2019-04-11T14:08:27.177Z,47.9713
2019-04-11T14:08:34.163Z,47.9591
2019-04-11T14:08:41.220Z,47.9728
2019-04-11T14:08:48.135Z,48.0278
2019-04-11T14:08:55.145Z,48.0186
2019-04-11T14:09:02.144Z,48.0415
2019-04-11T14:22:17.628Z,42.8046
2019-04-11T14:22:28.916Z,42.9831
2019-04-11T14:22:36.302Z,43.1235
2019-04-11T14:22:43.591Z,43.2212
2019-04-11T14:22:51.255Z,43.2334
2019-04-11T14:22:57.283Z,43.3249
2019-04-11T14:23:04.329Z,43.4028
2019-04-11T14:23:13.805Z,43.4256
2019-04-11T14:23:22.504Z,43.4943
2019-04-11T14:23:29.266Z,43.5462
2019-04-11T14:23:36.299Z,43.5737
2019-04-11T14:23:43.331Z,43.5721
2019-04-11T14:23:50.288Z,43.5874
2019-04-11T14:23:57.310Z,43.6042
2019-04-11T14:24:04.265Z,43.6194
2019-04-11T14:24:11.586Z,43.6454
2019-04-11T14:24:19.270Z,43.6454
2019-04-11T14:24:26.332Z,43.6652
2019-04-11T14:24:33.254Z,43.6652
2019-04-11T14:24:41.790Z,43.6790
2019-04-11T14:24:49.295Z,43.6561
2019-04-11T14:24:56.356Z,43.7247
2019-04-11T14:25:03.291Z,43.7049
2019-04-11T14:25:13.499Z,43.7339
2019-04-11T14:25:22.281Z,43.7751
2019-04-11T14:25:29.350Z,43.8331
2019-04-11T14:25:36.241Z,43.7552
2019-04-11T14:25:43.275Z,43.8468
2019-04-11T14:25:49.301Z,43.8483
2019-04-11T14:25:56.301Z,43.8621
2019-04-11T14:26:03.276Z,43.9948
2019-04-11T14:26:10.263Z,43.9704
2019-04-11T14:26:17.262Z,43.9841
2019-04-11T14:26:24.294Z,43.9628
2019-04-11T14:26:31.320Z,44.0299
2019-04-11T14:26:38.282Z,44.0818
2019-04-11T14:26:45.297Z,44.1077
2019-04-11T14:26:51.288Z,44.1459
2019-04-11T14:26:58.262Z,44.1856
2019-04-11T14:27:05.313Z,44.1856
2019-04-11T14:27:12.281Z,44.2359
2019-04-11T14:27:19.343Z,44.2954
2019-04-11T14:27:26.281Z,44.3046
2019-04-11T14:27:33.374Z,44.3564
2019-04-11T14:27:40.288Z,44.3915
2019-04-11T14:27:47.332Z,44.4282
2019-04-11T14:27:54.300Z,44.4389
2019-04-11T14:28:01.270Z,44.4755
2019-04-11T14:28:08.357Z,44.5380
2019-04-11T14:28:15.274Z,44.5380
2019-04-11T14:28:22.326Z,44.5747
2019-04-11T14:28:28.288Z,44.5701
2019-04-11T14:28:35.314Z,44.6311
2019-04-11T14:28:42.303Z,44.6708
2019-04-11T14:28:49.294Z,44.6708
2019-04-11T14:28:56.246Z,44.6937
2019-04-11T14:29:03.242Z,44.6937
2019-04-11T14:29:10.330Z,44.7532
2019-04-11T14:29:17.303Z,44.8005
2019-04-11T14:29:24.261Z,44.8356
2019-04-11T14:29:31.271Z,44.8005
2019-04-11T14:29:38.348Z,44.8829
2019-04-11T14:29:45.260Z,44.8737
2019-04-11T14:29:52.281Z,44.8997
2019-04-11T14:29:59.291Z,44.8951
2019-04-11T14:30:06.317Z,44.9332
2019-04-11T14:30:12.295Z,44.9424
2019-04-11T14:30:19.341Z,45.0156
2019-04-11T14:30:26.282Z,44.9958
2019-04-11T14:30:33.278Z,45.0645
2019-04-11T14:30:40.352Z,45.0553
2019-04-11T14:30:51.645Z,45.0919
2019-04-11T14:30:59.304Z,45.1240
2019-04-11T14:31:06.314Z,45.1240
2019-04-11T14:31:12.280Z,45.1240
2019-04-11T14:31:21.957Z,45.1438
2019-04-11T14:31:29.303Z,45.2216
2019-04-11T14:31:36.292Z,45.1972
2019-04-11T14:31:43.372Z,45.2338
2019-04-11T14:31:50.867Z,45.2705
2019-04-11T14:32:00.246Z,45.2674
2019-04-11T14:32:07.277Z,45.3025
2019-04-11T14:32:14.290Z,45.3635
2019-04-11T14:32:23.184Z,45.3498
2019-04-11T14:32:30.280Z,45.4093
2019-04-11T14:32:37.295Z,45.3758
2019-04-11T14:32:44.315Z,45.4261
2019-04-11T14:32:51.766Z,45.4307
2019-04-11T14:33:01.238Z,45.4826
2019-04-11T14:33:08.264Z,45.4780
2019-04-11T14:33:15.311Z,45.5329
2019-04-11T14:33:25.184Z,45.5543
2019-04-11T14:33:34.294Z,45.5329
2019-04-11T14:33:41.282Z,45.5314
2019-04-11T14:33:48.332Z,45.5909
2019-04-11T14:33:55.964Z,45.5787
2019-04-11T14:34:03.285Z,45.6413
2019-04-11T14:34:10.265Z,45.6382
2019-04-11T14:34:16.235Z,45.6870
2019-04-11T14:34:23.283Z,45.6230
2019-04-11T14:34:30.305Z,45.6413
2019-04-11T14:34:37.284Z,45.6840
2019-04-11T14:34:44.273Z,45.6382
2019-04-11T14:34:51.397Z,45.6977
2019-04-11T14:34:58.307Z,45.7115
2019-04-11T14:35:05.307Z,45.6748
2019-04-11T14:35:12.253Z,45.7115
2019-04-11T14:35:19.316Z,45.7206
2019-04-11T14:35:26.301Z,45.7206
2019-04-11T14:35:33.288Z,45.7481
2019-04-11T14:35:39.266Z,45.7694
2019-04-11T14:35:46.312Z,45.7801
2019-04-11T14:35:53.337Z,45.7832
2019-04-11T14:36:00.299Z,45.7481
2019-04-11T14:36:07.282Z,45.8061
2019-04-11T14:36:14.277Z,45.8061
2019-04-11T14:36:32.601Z,45.8061
2019-04-11T14:36:33.957Z,45.8305
2019-04-11T14:36:41.297Z,45.8518
2019-04-11T14:36:48.312Z,45.8656
2019-04-11T14:36:55.359Z,45.8671
2019-04-11T14:37:02.274Z,45.9022
